createdAt,value
2019-05-03T00:00:24.212Z,94626.48
2019-05-03T00:03:04.002Z,94628.75
2019-05-03T00:05:45.574Z,94631.11
2019-05-03T00:08:17.330Z,94628.50
2019-05-03T00:10:49.148Z,94624.56
2019-05-03T00:13:21.889Z,94619.30
2019-05-03T00:16:02.828Z,94618.05
2019-05-03T00:18:34.807Z,94622.61
2019-05-03T00:21:06.379Z,94623.30
2019-05-03T00:23:38.281Z,94619.66
2019-05-03T00:26:11.953Z,94620.17
2019-05-03T00:28:43.813Z,94625.22
2019-05-03T00:31:15.542Z,94622.03
2019-05-03T00:33:49.232Z,94621.11
2019-05-03T00:36:29.422Z,94619.34
2019-05-03T00:39:14.882Z,94622.91
2019-05-03T00:41:46.500Z,94630.25
2019-05-03T00:44:18.298Z,94634.53
2019-05-03T00:46:51.759Z,94630.42
2019-05-03T00:49:24.202Z,94638.78
2019-05-03T00:51:56.100Z,94636.87
2019-05-03T00:54:27.982Z,94634.31
2019-05-03T00:57:00.155Z,94643.11
2019-05-03T00:59:32.695Z,94633.91
2019-05-03T01:02:04.649Z,94637.52
2019-05-03T01:04:36.471Z,94635.84
2019-05-03T01:07:08.145Z,94636.91
2019-05-03T01:09:42.280Z,94636.86
2019-05-03T01:12:13.463Z,94633.70
2019-05-03T01:14:46.905Z,94637.12
2019-05-03T01:17:18.616Z,94634.05
2019-05-03T01:19:52.015Z,94633.16
2019-05-03T01:22:25.917Z,94629.27
2019-05-03T01:24:57.736Z,94629.23
2019-05-03T01:27:29.401Z,94629.50
2019-05-03T01:30:02.910Z,94640.32
2019-05-03T01:32:34.451Z,94639.28
2019-05-03T01:35:06.714Z,94641.13
2019-05-03T01:37:38.301Z,94646.78
2019-05-03T01:40:10.271Z,94650.16
2019-05-03T01:42:42.592Z,94647.40
2019-05-03T01:45:14.913Z,94641.31
2019-05-03T01:47:53.278Z,94640.84
2019-05-03T01:50:31.989Z,94641.38
2019-05-03T01:53:04.685Z,94641.54
2019-05-03T01:55:54.925Z,94639.48
2019-05-03T01:58:26.687Z,94641.38
2019-05-03T02:01:16.573Z,94638.45
2019-05-03T02:04:07.366Z,94635.63
2019-05-03T02:06:39.733Z,94636.84
2019-05-03T02:09:12.266Z,94632.91
2019-05-03T02:11:44.045Z,94634.59
2019-05-03T02:14:15.786Z,94629.34
2019-05-03T02:16:47.947Z,94628.81
2019-05-03T02:19:21.938Z,94626.13
2019-05-03T02:21:52.941Z,94627.89
2019-05-03T02:24:24.890Z,94629.48
2019-05-03T02:26:56.892Z,94630.66
2019-05-03T02:29:28.393Z,94635.42
2019-05-03T02:32:02.982Z,94634.26
2019-05-03T02:34:33.325Z,94634.26
2019-05-03T02:37:05.116Z,94633.45
2019-05-03T02:39:36.598Z,94628.08
2019-05-03T02:42:11.563Z,94634.52
2019-05-03T02:44:42.057Z,94637.94
2019-05-03T02:47:31.475Z,94630.97
2019-05-03T02:50:10.600Z,94640.96
2019-05-03T02:52:41.877Z,94639.84
2019-05-03T02:55:16.020Z,94640.14
2019-05-03T02:57:47.643Z,94642.37
2019-05-03T03:00:25.314Z,94642.41
2019-05-03T03:02:56.306Z,94645.23
2019-05-03T03:05:28.638Z,94644.12
2019-05-03T03:08:05.969Z,94643.48
2019-05-03T03:10:37.887Z,94647.26
2019-05-03T03:13:11.142Z,94644.70
2019-05-03T03:15:45.688Z,94651.81
2019-05-03T03:18:17.336Z,94644.72
2019-05-03T03:20:51.198Z,94655.11
2019-05-03T03:23:26.236Z,94651.81
2019-05-03T03:26:00.684Z,94648.27
2019-05-03T03:28:35.920Z,94645.41
2019-05-03T03:31:57.327Z,94651.96
2019-05-03T03:34:30.995Z,94648.93
2019-05-03T03:37:08.720Z,94653.87
2019-05-03T03:39:36.683Z,94654.56
2019-05-03T03:42:09.623Z,94654.38
2019-05-03T03:44:41.380Z,94657.34
2019-05-03T03:47:16.600Z,94652.98
2019-05-03T03:49:51.792Z,94654.41
2019-05-03T03:52:25.613Z,94655.69
2019-05-03T03:55:00.112Z,94652.17
2019-05-03T03:57:35.651Z,94657.67
2019-05-03T04:00:08.896Z,94662.03
2019-05-03T04:02:41.067Z,94663.00
2019-05-03T04:05:15.730Z,94671.20
2019-05-03T04:07:46.641Z,94672.13
2019-05-03T04:10:18.650Z,94690.06
2019-05-03T04:12:50.826Z,94687.31
2019-05-03T04:15:40.524Z,94680.67
2019-05-03T04:18:36.123Z,94683.06
2019-05-03T04:21:08.061Z,94675.41
2019-05-03T04:23:40.890Z,94677.62
2019-05-03T04:26:15.987Z,94680.02
2019-05-03T04:28:46.453Z,94684.59
2019-05-03T04:31:20.684Z,94691.17
2019-05-03T04:33:52.325Z,94691.75
2019-05-03T04:36:26.187Z,94696.13
2019-05-03T04:38:57.576Z,94695.00
2019-05-03T04:41:29.338Z,94689.63
2019-05-03T04:44:01.197Z,94686.91
2019-05-03T04:46:35.657Z,94688.98
2019-05-03T04:49:06.396Z,94689.23
2019-05-03T04:51:38.098Z,94682.00
2019-05-03T04:54:46.933Z,94686.54
2019-05-03T04:57:34.776Z,94693.06
2019-05-03T04:59:52.699Z,94694.84
2019-05-03T05:02:26.260Z,94686.41
2019-05-03T05:04:57.888Z,94693.66
2019-05-03T05:07:29.404Z,94696.95
2019-05-03T05:10:01.306Z,94695.64
2019-05-03T05:12:35.425Z,94698.48
2019-05-03T05:15:06.575Z,94698.03
2019-05-03T05:18:05.670Z,94704.02
2019-05-03T05:20:45.374Z,94702.22
2019-05-03T05:23:17.480Z,94707.95
2019-05-03T05:26:05.408Z,94708.92
2019-05-03T05:28:44.910Z,94704.17
2019-05-03T05:31:16.965Z,94704.80
2019-05-03T05:33:48.840Z,94708.61
2019-05-03T05:36:20.628Z,94704.99
2019-05-03T05:38:52.184Z,94701.09
2019-05-03T05:41:24.548Z,94703.87
2019-05-03T05:43:56.386Z,94705.16
2019-05-03T05:46:32.736Z,94699.39
2019-05-03T05:49:06.867Z,94706.81
2019-05-03T05:51:38.645Z,94712.55
2019-05-03T05:54:10.151Z,94708.89
2019-05-03T05:57:10.201Z,94710.55
2019-05-03T05:59:47.681Z,94709.98
2019-05-03T06:02:19.978Z,94705.84
2019-05-03T06:04:51.698Z,94705.34
2019-05-03T06:07:48.567Z,94708.08
2019-05-03T06:10:31.382Z,94710.22
2019-05-03T06:13:15.233Z,94700.62
2019-05-03T06:16:06.879Z,94703.80
2019-05-03T06:19:00.516Z,94703.52
2019-05-03T06:21:44.770Z,94706.47
2019-05-03T06:24:24.949Z,94703.27
2019-05-03T06:27:05.264Z,94708.02
2019-05-03T06:29:36.920Z,94706.89
2019-05-03T06:32:17.812Z,94702.31
2019-05-03T06:34:49.563Z,94702.26
2019-05-03T06:37:25.004Z,94698.36
2019-05-03T06:39:56.814Z,94704.07
2019-05-03T06:42:28.722Z,94699.73
2019-05-03T06:45:09.630Z,94700.78
2019-05-03T06:47:34.834Z,94699.23
2019-05-03T06:50:07.134Z,94694.96
2019-05-03T06:52:38.815Z,94691.22
2019-05-03T06:55:10.912Z,94698.23
2019-05-03T06:57:49.405Z,94696.41
2019-05-03T07:00:36.172Z,94690.22
2019-05-03T07:03:25.206Z,94691.77
2019-05-03T07:06:14.994Z,94696.45
2019-05-03T07:08:55.495Z,94691.39
2019-05-03T07:11:27.183Z,94691.42
2019-05-03T07:13:59.234Z,94686.55
2019-05-03T07:16:30.731Z,94689.64
2019-05-03T07:19:04.296Z,94686.58
2019-05-03T07:21:35.586Z,94687.50
2019-05-03T07:24:07.363Z,94689.78
2019-05-03T07:26:39.181Z,94679.42
2019-05-03T07:29:10.788Z,94681.34
2019-05-03T07:31:44.648Z,94684.46
2019-05-03T07:34:16.282Z,94681.93
2019-05-03T07:36:48.410Z,94685.84
2019-05-03T07:39:20.205Z,94686.70
2019-05-03T07:41:52.246Z,94683.31
2019-05-03T07:44:25.491Z,94683.99
2019-05-03T07:46:57.755Z,94686.36
2019-05-03T07:49:29.495Z,94677.65
2019-05-03T07:52:01.374Z,94675.37
2019-05-03T07:54:34.885Z,94662.38
2019-05-03T07:57:27.332Z,94660.00
2019-05-03T07:59:59.161Z,94659.89
2019-05-03T08:02:30.785Z,94662.21
2019-05-03T08:05:02.610Z,94664.08
2019-05-03T08:07:35.614Z,94667.99
2019-05-03T08:10:09.130Z,94666.95
2019-05-03T08:12:41.315Z,94669.28
2019-05-03T08:15:13.073Z,94666.96
2019-05-03T08:17:45.089Z,94673.09
2019-05-03T08:20:16.700Z,94670.15
2019-05-03T08:22:48.575Z,94661.62
2019-05-03T08:25:19.948Z,94659.31
2019-05-03T08:27:51.743Z,94646.99
2019-05-03T08:30:29.744Z,94640.70
2019-05-03T08:33:16.349Z,94631.58
2019-05-03T08:35:49.216Z,94633.69
2019-05-03T08:38:21.143Z,94644.30
2019-05-03T08:40:54.807Z,94647.06
2019-05-03T08:43:26.893Z,94638.96
2019-05-03T08:46:04.762Z,94626.39
2019-05-03T08:48:36.315Z,94629.06
2019-05-03T08:51:07.972Z,94629.64
2019-05-03T08:53:39.704Z,94620.20
2019-05-03T08:56:11.348Z,94619.57
2019-05-03T08:58:45.106Z,94615.55
2019-05-03T09:01:17.168Z,94611.78
2019-05-03T09:03:48.755Z,94614.58
2019-05-03T09:06:20.347Z,94615.52
2019-05-03T09:08:54.970Z,94597.87
2019-05-03T09:11:34.021Z,94594.52
2019-05-03T09:14:04.452Z,94593.36
2019-05-03T09:16:36.413Z,94594.19
2019-05-03T09:19:08.186Z,94584.74
2019-05-03T09:21:39.969Z,94584.11
2019-05-03T09:24:11.482Z,94584.77
2019-05-03T09:26:44.903Z,94580.55
2019-05-03T09:29:16.972Z,94588.06
2019-05-03T09:31:49.012Z,94581.65
2019-05-03T09:34:20.690Z,94578.10
2019-05-03T09:36:52.439Z,94572.72
2019-05-03T09:39:24.639Z,94563.88
2019-05-03T09:41:56.630Z,94559.77
2019-05-03T09:44:28.478Z,94557.14
2019-05-03T09:47:00.166Z,94557.59
2019-05-03T09:49:31.873Z,94551.64
2019-05-03T09:52:08.127Z,94548.84
2019-05-03T09:54:45.304Z,94550.34
2019-05-03T09:57:16.752Z,94550.47
2019-05-03T09:59:57.229Z,94540.72
2019-05-03T10:02:21.654Z,94548.59
2019-05-03T10:04:55.272Z,94532.64
2019-05-03T10:07:26.707Z,94527.07
2019-05-03T10:09:58.196Z,94528.33
2019-05-03T10:12:30.088Z,94536.80
2019-05-03T10:15:01.962Z,94525.40
2019-05-03T10:17:55.308Z,94524.36
2019-05-03T10:20:27.622Z,94523.88
2019-05-03T10:23:06.439Z,94522.89
2019-05-03T10:25:40.313Z,94517.70
2019-05-03T10:28:12.057Z,94514.98
2019-05-03T10:30:45.073Z,94508.81
2019-05-03T10:33:22.568Z,94510.81
2019-05-03T10:35:54.614Z,94507.14
2019-05-03T10:38:26.467Z,94503.44
2019-05-03T10:40:58.466Z,94496.40
2019-05-03T10:43:29.982Z,94496.21
2019-05-03T10:46:01.851Z,94485.96
2019-05-03T10:48:35.438Z,94491.28
2019-05-03T10:51:09.642Z,94489.93
2019-05-03T10:53:45.442Z,94482.14
2019-05-03T10:56:23.308Z,94484.25
2019-05-03T10:59:01.341Z,94474.34
2019-05-03T11:01:50.941Z,94485.31
2019-05-03T11:04:22.889Z,94482.50
2019-05-03T11:06:55.233Z,94485.73
2019-05-03T11:09:26.905Z,94478.41
2019-05-03T11:12:00.478Z,94478.00
2019-05-03T11:14:34.864Z,94471.39
2019-05-03T11:17:06.253Z,94467.47
2019-05-03T11:19:37.943Z,94462.56
2019-05-03T11:22:09.616Z,94461.52
2019-05-03T11:24:41.439Z,94454.69
2019-05-03T11:27:18.521Z,94457.94
2019-05-03T11:29:49.869Z,94451.55
2019-05-03T11:32:40.591Z,94460.81
2019-05-03T11:41:06.914Z,94439.09
2019-05-03T11:43:39.588Z,94435.12
2019-05-03T11:46:11.253Z,94445.69
2019-05-03T11:48:42.927Z,94440.06
2019-05-03T11:51:15.195Z,94437.61
2019-05-03T11:53:47.069Z,94427.94
2019-05-03T11:56:18.948Z,94421.04
2019-05-03T11:58:50.973Z,94416.83
2019-05-03T12:01:28.095Z,94411.44
2019-05-03T12:04:05.991Z,94405.73
2019-05-03T12:06:37.875Z,94404.67
2019-05-03T12:09:10.042Z,94396.81
2019-05-03T12:11:42.458Z,94401.67
2019-05-03T12:14:15.439Z,94390.43
2019-05-03T12:17:16.074Z,94392.13
2019-05-03T12:19:31.152Z,94391.76
2019-05-03T12:22:00.990Z,94387.64
2019-05-03T12:24:35.960Z,94386.41
2019-05-03T12:27:06.988Z,94390.80
2019-05-03T12:29:38.729Z,94387.45
2019-05-03T12:32:10.198Z,94385.27
2019-05-03T12:34:42.284Z,94383.92
2019-05-03T12:37:15.521Z,94384.14
2019-05-03T12:39:47.367Z,94379.72
2019-05-03T12:42:19.033Z,94370.84
2019-05-03T12:44:50.869Z,94371.80
2019-05-03T12:47:25.007Z,94378.64
2019-05-03T12:49:56.273Z,94373.57
2019-05-03T12:52:28.688Z,94363.05
2019-05-03T12:55:00.419Z,94365.40
2019-05-03T12:57:31.791Z,94364.95
2019-05-03T13:00:11.978Z,94359.73
2019-05-03T13:02:47.981Z,94358.49
2019-05-03T13:05:19.932Z,94354.70
2019-05-03T13:08:09.008Z,94354.67
2019-05-03T13:10:40.911Z,94347.65
2019-05-03T13:13:14.521Z,94349.52
2019-05-03T13:15:46.684Z,94347.73
2019-05-03T13:18:18.354Z,94347.97
2019-05-03T13:20:50.159Z,94340.89
2019-05-03T13:23:21.783Z,94340.23
2019-05-03T13:25:53.415Z,94337.77
2019-05-03T13:28:25.452Z,94334.53
2019-05-03T13:30:57.492Z,94335.41
2019-05-03T13:33:29.466Z,94336.13
2019-05-03T13:36:01.216Z,94326.33
2019-05-03T13:38:35.036Z,94327.30
2019-05-03T13:41:07.195Z,94327.76
2019-05-03T13:43:40.464Z,94331.73
2019-05-03T13:46:12.740Z,94328.20
2019-05-03T13:48:46.664Z,94323.48
2019-05-03T13:51:18.336Z,94326.81
2019-05-03T13:53:49.912Z,94328.03
2019-05-03T13:56:21.828Z,94335.20
2019-05-03T13:58:55.085Z,94337.78
2019-05-03T14:01:27.085Z,94332.13
2019-05-03T14:03:58.914Z,94332.77
2019-05-03T14:06:33.617Z,94329.53
2019-05-03T14:09:06.286Z,94325.09
2019-05-03T14:11:38.427Z,94320.09
2019-05-03T14:14:10.276Z,94322.30
2019-05-03T14:16:41.935Z,94316.35
2019-05-03T14:19:18.931Z,94312.05
2019-05-03T14:21:54.662Z,94309.52
2019-05-03T14:24:26.619Z,94310.18
2019-05-03T14:26:58.439Z,94311.39
2019-05-03T14:29:30.139Z,94306.41
2019-05-03T14:32:02.030Z,94300.39
2019-05-03T14:34:35.805Z,94298.81
2019-05-03T14:37:07.548Z,94303.05
2019-05-03T14:39:39.174Z,94307.22
2019-05-03T14:42:10.564Z,94308.45
2019-05-03T14:44:42.219Z,94302.10
2019-05-03T14:47:14.755Z,94302.51
2019-05-03T14:49:46.463Z,94300.04
2019-05-03T14:52:18.271Z,94299.95
2019-05-03T14:54:51.950Z,94299.39
2019-05-03T14:57:27.747Z,94294.39
2019-05-03T15:00:10.469Z,94292.47
2019-05-03T15:02:51.063Z,94294.61
2019-05-03T15:05:25.192Z,94288.89
2019-05-03T15:07:56.118Z,94291.11
2019-05-03T15:10:28.775Z,94292.83
2019-05-03T15:13:00.498Z,94290.09
2019-05-03T15:15:32.199Z,94289.80
2019-05-03T15:18:05.907Z,94284.09
2019-05-03T15:20:41.245Z,94286.86
2019-05-03T15:23:14.516Z,94290.23
2019-05-03T15:25:46.283Z,94282.81
2019-05-03T15:28:18.033Z,94284.89
2019-05-03T15:30:49.739Z,94280.91
2019-05-03T15:33:21.593Z,94283.25
2019-05-03T15:35:55.250Z,94282.98
2019-05-03T15:38:27.315Z,94286.05
2019-05-03T15:40:59.158Z,94287.71
2019-05-03T15:43:41.795Z,94288.08
2019-05-03T15:46:39.380Z,94283.83
2019-05-03T15:49:11.208Z,94289.30
2019-05-03T15:51:44.581Z,94284.47
2019-05-03T15:54:16.581Z,94287.09
2019-05-03T15:56:48.128Z,94285.60
2019-05-03T15:59:19.724Z,94276.16
2019-05-03T16:01:51.628Z,94275.94
2019-05-03T16:04:24.966Z,94272.99
2019-05-03T16:06:56.464Z,94278.95
2019-05-03T16:09:28.135Z,94278.95
2019-05-03T16:12:00.148Z,94274.58
2019-05-03T16:14:31.725Z,94271.09
2019-05-03T16:17:04.432Z,94266.44
2019-05-03T16:19:36.512Z,94271.48
2019-05-03T16:22:08.301Z,94272.45
2019-05-03T16:24:40.229Z,94271.97
2019-05-03T16:27:22.055Z,94274.49
2019-05-03T16:29:54.915Z,94276.15
2019-05-03T16:32:26.726Z,94272.74
2019-05-03T16:34:58.271Z,94277.67
2019-05-03T16:37:29.873Z,94280.27
2019-05-03T16:40:01.883Z,94277.50
2019-05-03T16:42:34.997Z,94269.98
2019-05-03T16:45:05.657Z,94279.47
2019-05-03T16:47:36.928Z,94278.91
2019-05-03T16:50:09.059Z,94282.84
2019-05-03T16:52:45.577Z,94290.42
2019-05-03T16:55:17.483Z,94288.44
2019-05-03T16:57:49.291Z,94284.53
2019-05-03T17:00:22.118Z,94286.14
2019-05-03T17:02:55.114Z,94290.39
2019-05-03T17:06:00.830Z,94288.56
2019-05-03T17:09:06.723Z,94296.05
2019-05-03T17:11:39.994Z,94302.03
2019-05-03T17:14:12.299Z,94302.47
2019-05-03T17:16:45.059Z,94304.02
2019-05-03T17:19:17.973Z,94309.66
2019-05-03T17:21:50.026Z,94304.78
2019-05-03T17:24:21.744Z,94312.55
2019-05-03T17:26:55.156Z,94304.06
2019-05-03T17:29:27.370Z,94317.64
2019-05-03T17:31:59.064Z,94324.36
2019-05-03T17:34:30.878Z,94320.52
2019-05-03T17:37:02.595Z,94329.45
2019-05-03T17:39:56.635Z,94331.04
2019-05-03T17:42:45.630Z,94328.74
2019-05-03T17:45:21.031Z,94340.07
2019-05-03T17:47:52.691Z,94342.06
2019-05-03T17:50:24.269Z,94340.77
2019-05-03T17:53:30.026Z,94347.39
2019-05-03T17:56:20.736Z,94359.93
2019-05-03T17:58:58.733Z,94366.64
2019-05-03T18:01:49.542Z,94376.56
2019-05-03T18:04:38.609Z,94377.77
2019-05-03T18:07:25.102Z,94375.13
2019-05-03T18:09:57.117Z,94374.19
2019-05-03T18:12:28.865Z,94379.95
2019-05-03T18:15:00.741Z,94386.83
2019-05-03T18:17:32.777Z,94389.24
2019-05-03T18:20:04.626Z,94398.95
2019-05-03T18:22:36.274Z,94399.95
2019-05-03T18:25:08.546Z,94405.81
2019-05-03T18:27:40.226Z,94409.33
2019-05-03T18:30:11.884Z,94409.58
2019-05-03T18:32:45.169Z,94408.17
2019-05-03T18:35:18.225Z,94405.41
2019-05-03T18:37:58.497Z,94412.36
2019-05-03T18:40:32.032Z,94412.73
2019-05-03T18:43:09.313Z,94414.39
2019-05-03T18:46:11.362Z,94430.89
2019-05-03T18:48:44.551Z,94416.46
2019-05-03T18:51:15.181Z,94421.57
2019-05-03T18:53:46.896Z,94428.05
2019-05-03T18:56:18.784Z,94430.72
2019-05-03T18:58:50.829Z,94435.39
2019-05-03T19:01:22.606Z,94436.37
2019-05-03T19:03:57.703Z,94440.86
2019-05-03T19:06:29.420Z,94448.15
2019-05-03T19:09:38.447Z,94445.87
2019-05-03T19:12:33.174Z,94444.45
2019-05-03T19:15:05.824Z,94454.25
2019-05-03T19:17:54.632Z,94461.99
2019-05-03T19:20:26.231Z,94462.30
2019-05-03T19:22:58.504Z,94458.23
2019-05-03T19:25:30.106Z,94460.91
2019-05-03T19:28:01.605Z,94453.23
2019-05-03T19:30:34.828Z,94455.64
2019-05-03T19:33:05.375Z,94463.81
2019-05-03T19:35:36.721Z,94469.49
2019-05-03T19:38:09.378Z,94471.95
2019-05-03T19:40:41.376Z,94465.63
2019-05-03T19:43:15.147Z,94463.64
2019-05-03T19:45:47.085Z,94467.95
2019-05-03T19:48:18.882Z,94474.92
2019-05-03T19:50:50.898Z,94474.69
2019-05-03T19:53:50.324Z,94477.65
2019-05-03T19:56:22.936Z,94472.05
2019-05-03T19:58:58.711Z,94473.88
2019-05-03T20:01:55.608Z,94468.56
2019-05-03T20:04:35.747Z,94468.06
2019-05-03T20:07:26.354Z,94467.80
2019-05-03T20:09:57.831Z,94471.25
2019-05-03T20:12:29.750Z,94470.95
2019-05-03T20:15:01.268Z,94469.89
2019-05-03T20:17:34.539Z,94460.27
2019-05-03T20:20:05.638Z,94461.55
2019-05-03T20:22:37.372Z,94467.37
2019-05-03T20:25:09.328Z,94468.70
2019-05-03T20:27:41.183Z,94470.75
2019-05-03T20:30:14.890Z,94471.80
2019-05-03T20:32:46.323Z,94473.08
2019-05-03T20:35:19.361Z,94477.59
2019-05-03T20:37:51.662Z,94474.06
2019-05-03T20:40:23.177Z,94471.28
2019-05-03T20:43:07.774Z,94477.14
2019-05-03T20:45:57.228Z,94474.19
2019-05-03T20:48:29.017Z,94482.30
2019-05-03T20:51:00.530Z,94489.81
2019-05-03T20:53:34.283Z,94483.05
2019-05-03T20:56:06.854Z,94485.41
2019-05-03T20:58:38.275Z,94486.73
2019-05-03T21:01:09.868Z,94486.56
2019-05-03T21:03:41.662Z,94483.10
2019-05-03T21:06:15.104Z,94482.25
2019-05-03T21:08:52.371Z,94486.73
2019-05-03T21:11:18.625Z,94486.41
2019-05-03T21:13:50.810Z,94490.95
2019-05-03T21:16:31.018Z,94489.88
2019-05-03T21:19:15.923Z,94489.87
2019-05-03T21:22:09.462Z,94494.35
2019-05-03T21:24:46.493Z,94493.30
2019-05-03T21:27:18.355Z,94489.87
2019-05-03T21:29:56.217Z,94486.68
2019-05-03T21:32:29.141Z,94492.55
2019-05-03T21:35:00.856Z,94493.34
2019-05-03T21:37:34.796Z,94494.95
2019-05-03T21:40:06.392Z,94493.19
2019-05-03T21:42:37.912Z,94497.72
2019-05-03T21:45:11.175Z,94499.63
2019-05-03T21:48:00.560Z,94502.59
2019-05-03T21:50:32.244Z,94502.56
2019-05-03T21:53:05.834Z,94499.63
2019-05-03T21:55:37.467Z,94498.34
2019-05-03T21:58:09.134Z,94500.53
2019-05-03T22:01:05.446Z,94500.56
2019-05-03T22:03:38.584Z,94501.86
2019-05-03T22:06:10.145Z,94503.48
2019-05-03T22:08:41.829Z,94506.69
2019-05-03T22:11:14.887Z,94508.03
2019-05-03T22:13:48.469Z,94504.58
2019-05-03T22:16:45.080Z,94508.54
2019-05-03T22:19:19.349Z,94513.84
2019-05-03T22:22:07.739Z,94510.88
2019-05-03T22:24:44.704Z,94503.16
2019-05-03T22:27:21.378Z,94508.24
2019-05-03T22:29:54.622Z,94513.58
2019-05-03T22:32:27.138Z,94509.05
2019-05-03T22:34:59.090Z,94500.27
2019-05-03T22:37:30.644Z,94489.66
2019-05-03T22:40:02.382Z,94497.09
2019-05-03T22:42:34.689Z,94495.78
2019-05-03T22:45:07.839Z,94498.97
2019-05-03T22:47:39.730Z,94504.49
2019-05-03T22:50:11.915Z,94498.89
2019-05-03T22:52:45.483Z,94499.33
2019-05-03T22:55:17.805Z,94495.59
2019-05-03T22:57:49.823Z,94487.39
2019-05-03T23:00:21.494Z,94487.88
2019-05-03T23:02:54.760Z,94488.13
2019-05-03T23:05:26.679Z,94491.00
2019-05-03T23:07:58.403Z,94490.98
2019-05-03T23:10:30.243Z,94499.72
2019-05-03T23:13:02.038Z,94499.52
2019-05-03T23:15:37.021Z,94503.53
2019-05-03T23:18:08.953Z,94498.20
2019-05-03T23:21:04.554Z,94496.86
2019-05-03T23:23:54.766Z,94496.52
2019-05-03T23:26:26.828Z,94495.64
2019-05-03T23:28:58.458Z,94490.81
2019-05-03T23:31:30.270Z,94497.66
2019-05-03T23:34:02.071Z,94490.63
2019-05-03T23:36:36.248Z,94494.91
2019-05-03T23:39:08.920Z,94490.84
2019-05-03T23:41:40.944Z,94497.41
2019-05-03T23:44:12.593Z,94491.00
2019-05-03T23:47:01.081Z,94485.03
2019-05-03T23:49:32.473Z,94480.20
2019-05-03T23:52:23.213Z,94483.44
2019-05-03T23:54:56.043Z,94476.00
2019-05-03T23:57:27.807Z,94475.83
2019-05-03T23:59:59.766Z,94474.67
